sensor_id;sensor_type;location;lat;lon;timestamp;pressure;altitude;pressure_sealevel;temperature
15144;BMP180;7672;50.834;6.286;2022-07-30T00:00:49;99888.50;;;22.47
15144;BMP180;7672;50.834;6.286;2022-07-30T00:03:16;99897.13;;;22.46
15144;BMP180;7672;50.834;6.286;2022-07-30T00:05:43;99890.41;;;22.44
15144;BMP180;7672;50.834;6.286;2022-07-30T00:08:10;99893.81;;;22.44
15144;BMP180;7672;50.834;6.286;2022-07-30T00:10:37;99894.69;;;22.43
15144;BMP180;7672;50.834;6.286;2022-07-30T00:13:06;99888.78;;;22.41
15144;BMP180;7672;50.834;6.286;2022-07-30T00:15:33;99895.72;;;22.39
15144;BMP180;7672;50.834;6.286;2022-07-30T00:18:00;99899.97;;;22.40
15144;BMP180;7672;50.834;6.286;2022-07-30T00:20:27;99903.38;;;22.41
15144;BMP180;7672;50.834;6.286;2022-07-30T00:22:54;99905.06;;;22.42
15144;BMP180;7672;50.834;6.286;2022-07-30T00:25:22;99893.94;;;22.41
15144;BMP180;7672;50.834;6.286;2022-07-30T00:27:49;99894.75;;;22.42
15144;BMP180;7672;50.834;6.286;2022-07-30T00:30:15;99898.94;;;22.44
15144;BMP180;7672;50.834;6.286;2022-07-30T00:32:42;99905.78;;;22.45
15144;BMP180;7672;50.834;6.286;2022-07-30T00:35:10;99900.56;;;22.47
15144;BMP180;7672;50.834;6.286;2022-07-30T00:37:37;99899.69;;;22.48
15144;BMP180;7672;50.834;6.286;2022-07-30T00:40:06;99908.22;;;22.48
15144;BMP180;7672;50.834;6.286;2022-07-30T00:42:52;99893.72;;;22.46
15144;BMP180;7672;50.834;6.286;2022-07-30T00:45:19;99895.41;;;22.47
15144;BMP180;7672;50.834;6.286;2022-07-30T00:47:46;99899.69;;;22.48
15144;BMP180;7672;50.834;6.286;2022-07-30T00:50:14;99891.94;;;22.48
15144;BMP180;7672;50.834;6.286;2022-07-30T00:52:43;99891.09;;;22.47
15144;BMP180;7672;50.834;6.286;2022-07-30T00:55:14;99900.69;;;22.44
15144;BMP180;7672;50.834;6.286;2022-07-30T00:57:42;99899.91;;;22.42
15144;BMP180;7672;50.834;6.286;2022-07-30T01:00:13;99900.94;;;22.38
15144;BMP180;7672;50.834;6.286;2022-07-30T01:02:40;99900.16;;;22.36
15144;BMP180;7672;50.834;6.286;2022-07-30T01:05:08;99901.19;;;22.32
15144;BMP180;7672;50.834;6.286;2022-07-30T01:07:35;99898.84;;;22.26
15144;BMP180;7672;50.834;6.286;2022-07-30T01:10:04;99902.31;;;22.25
15144;BMP180;7672;50.834;6.286;2022-07-30T01:12:32;99908.44;;;22.21
15144;BMP180;7672;50.834;6.286;2022-07-30T01:15:02;99909.47;;;22.17
15144;BMP180;7672;50.834;6.286;2022-07-30T01:17:30;99901.81;;;22.16
15144;BMP180;7672;50.834;6.286;2022-07-30T01:20:22;99897.75;;;22.10
15144;BMP180;7672;50.834;6.286;2022-07-30T01:23:12;99903.00;;;22.07
15144;BMP180;7672;50.834;6.286;2022-07-30T01:25:52;99904.00;;;22.03
15144;BMP180;7672;50.834;6.286;2022-07-30T01:28:31;99903.31;;;22.00
15144;BMP180;7672;50.834;6.286;2022-07-30T01:31:00;99909.44;;;21.96
15144;BMP180;7672;50.834;6.286;2022-07-30T01:33:30;99907.00;;;21.93
15144;BMP180;7672;50.834;6.286;2022-07-30T01:36:00;99899.41;;;21.90
15144;BMP180;7672;50.834;6.286;2022-07-30T01:38:30;99903.78;;;21.88
15144;BMP180;7672;50.834;6.286;2022-07-30T01:41:02;99903.03;;;21.84
15144;BMP180;7672;50.834;6.286;2022-07-30T01:43:31;99913.41;;;21.83
15144;BMP180;7672;50.834;6.286;2022-07-30T01:46:02;99914.34;;;21.80
15144;BMP180;7672;50.834;6.286;2022-07-30T01:48:31;99908.50;;;21.77
15144;BMP180;7672;50.834;6.286;2022-07-30T01:51:04;99906.88;;;21.75
15144;BMP180;7672;50.834;6.286;2022-07-30T01:53:36;99919.78;;;21.73
15144;BMP180;7672;50.834;6.286;2022-07-30T01:56:04;99919.91;;;21.70
15144;BMP180;7672;50.834;6.286;2022-07-30T01:58:38;99920.06;;;21.66
15144;BMP180;7672;50.834;6.286;2022-07-30T02:01:06;99921.03;;;21.63
15144;BMP180;7672;50.834;6.286;2022-07-30T02:03:34;99918.63;;;21.59
15144;BMP180;7672;50.834;6.286;2022-07-30T02:06:08;99918.75;;;21.56
15144;BMP180;7672;50.834;6.286;2022-07-30T02:08:55;99918.06;;;21.51
15144;BMP180;7672;50.834;6.286;2022-07-30T02:11:23;99921.56;;;21.48
15144;BMP180;7672;50.834;6.286;2022-07-30T02:14:25;99923.53;;;21.42
15144;BMP180;7672;50.834;6.286;2022-07-30T02:16:55;99925.28;;;21.40
15144;BMP180;7672;50.834;6.286;2022-07-30T02:19:35;99918.59;;;21.36
15144;BMP180;7672;50.834;6.286;2022-07-30T02:22:12;99922.03;;;21.35
15144;BMP180;7672;50.834;6.286;2022-07-30T02:24:42;99920.47;;;21.31
15144;BMP180;7672;50.834;6.286;2022-07-30T02:27:25;99929.97;;;21.29
15144;BMP180;7672;50.834;6.286;2022-07-30T02:29:58;99921.59;;;21.24
15144;BMP180;7672;50.834;6.286;2022-07-30T02:32:29;99921.69;;;21.21
15144;BMP180;7672;50.834;6.286;2022-07-30T02:35:07;99920.94;;;21.17
15144;BMP180;7672;50.834;6.286;2022-07-30T02:37:36;99920.19;;;21.15
15144;BMP180;7672;50.834;6.286;2022-07-30T02:40:18;99920.34;;;21.11
15144;BMP180;7672;50.834;6.286;2022-07-30T02:42:49;99921.34;;;21.07
15144;BMP180;7672;50.834;6.286;2022-07-30T02:45:17;99923.91;;;21.07
15144;BMP180;7672;50.834;6.286;2022-07-30T02:47:52;99921.44;;;21.04
15144;BMP180;7672;50.834;6.286;2022-07-30T02:50:22;99922.34;;;21.03
15144;BMP180;7672;50.834;6.286;2022-07-30T02:52:52;99916.38;;;21.03
15144;BMP180;7672;50.834;6.286;2022-07-30T02:55:22;99917.31;;;21.00
15144;BMP180;7672;50.834;6.286;2022-07-30T02:57:52;99913.94;;;20.98
15144;BMP180;7672;50.834;6.286;2022-07-30T03:00:22;99919.13;;;20.97
15144;BMP180;7672;50.834;6.286;2022-07-30T03:02:51;99924.28;;;20.97
15144;BMP180;7672;50.834;6.286;2022-07-30T03:05:24;99924.41;;;20.94
15144;BMP180;7672;50.834;6.286;2022-07-30T03:07:54;99925.28;;;20.93
15144;BMP180;7672;50.834;6.286;2022-07-30T03:10:24;99928.72;;;20.92
15144;BMP180;7672;50.834;6.286;2022-07-30T03:12:54;99924.59;;;20.88
15144;BMP180;7672;50.834;6.286;2022-07-30T03:15:22;99911.88;;;20.85
15144;BMP180;7672;50.834;6.286;2022-07-30T03:17:52;99911.00;;;20.84
15144;BMP180;7672;50.834;6.286;2022-07-30T03:20:28;99921.41;;;20.81
15144;BMP180;7672;50.834;6.286;2022-07-30T03:22:58;99916.34;;;20.78
15144;BMP180;7672;50.834;6.286;2022-07-30T03:25:28;99917.34;;;20.74
15144;BMP180;7672;50.834;6.286;2022-07-30T03:27:58;99929.41;;;20.72
15144;BMP180;7672;50.834;6.286;2022-07-30T03:30:27;99930.31;;;20.70
15144;BMP180;7672;50.834;6.286;2022-07-30T03:32:55;99935.50;;;20.68
15144;BMP180;7672;50.834;6.286;2022-07-30T03:35:23;99934.69;;;20.66
15144;BMP180;7672;50.834;6.286;2022-07-30T03:37:53;99934.75;;;20.65
15144;BMP180;7672;50.834;6.286;2022-07-30T03:40:21;99939.84;;;20.66
15144;BMP180;7672;50.834;6.286;2022-07-30T03:42:49;99945.88;;;20.65
15144;BMP180;7672;50.834;6.286;2022-07-30T03:45:17;99948.44;;;20.65
15144;BMP180;7672;50.834;6.286;2022-07-30T03:47:46;99941.59;;;20.64
15144;BMP180;7672;50.834;6.286;2022-07-30T03:50:13;99952.78;;;20.63
15144;BMP180;7672;50.834;6.286;2022-07-30T03:52:41;99956.25;;;20.62
15144;BMP180;7672;50.834;6.286;2022-07-30T03:55:11;99951.19;;;20.59
15144;BMP180;7672;50.834;6.286;2022-07-30T03:57:38;99955.50;;;20.59
15144;BMP180;7672;50.834;6.286;2022-07-30T04:00:11;99957.31;;;20.55
15144;BMP180;7672;50.834;6.286;2022-07-30T04:02:44;99954.84;;;20.52
15144;BMP180;7672;50.834;6.286;2022-07-30T04:05:13;99960.94;;;20.50
15144;BMP180;7672;50.834;6.286;2022-07-30T04:07:40;99960.13;;;20.48
15144;BMP180;7672;50.834;6.286;2022-07-30T04:10:12;99962.69;;;20.48
15144;BMP180;7672;50.834;6.286;2022-07-30T04:12:38;99966.19;;;20.46
15144;BMP180;7672;50.834;6.286;2022-07-30T04:15:06;99959.28;;;20.48
15144;BMP180;7672;50.834;6.286;2022-07-30T04:18:00;99965.41;;;20.44
15144;BMP180;7672;50.834;6.286;2022-07-30T04:20:39;99957.78;;;20.42
15144;BMP180;7672;50.834;6.286;2022-07-30T04:23:08;99962.09;;;20.40
15144;BMP180;7672;50.834;6.286;2022-07-30T04:25:38;99962.97;;;20.41
15144;BMP180;7672;50.834;6.286;2022-07-30T04:28:06;99960.34;;;20.42
15144;BMP180;7672;50.834;6.286;2022-07-30T04:30:33;99960.38;;;20.41
15144;BMP180;7672;50.834;6.286;2022-07-30T04:33:04;99970.66;;;20.41
15144;BMP180;7672;50.834;6.286;2022-07-30T04:35:33;99967.16;;;20.43
15144;BMP180;7672;50.834;6.286;2022-07-30T04:38:19;99968.97;;;20.40
15144;BMP180;7672;50.834;6.286;2022-07-30T04:40:46;99969.03;;;20.38
15144;BMP180;7672;50.834;6.286;2022-07-30T04:43:14;99977.44;;;20.42
15144;BMP180;7672;50.834;6.286;2022-07-30T04:45:41;99972.25;;;20.45
15144;BMP180;7672;50.834;6.286;2022-07-30T04:48:08;99976.50;;;20.44
15144;BMP180;7672;50.834;6.286;2022-07-30T04:50:41;99981.47;;;20.50
15144;BMP180;7672;50.834;6.286;2022-07-30T04:53:10;99985.72;;;20.51
15144;BMP180;7672;50.834;6.286;2022-07-30T04:55:42;99989.88;;;20.55
15144;BMP180;7672;50.834;6.286;2022-07-30T04:58:14;99985.44;;;20.60
15144;BMP180;7672;50.834;6.286;2022-07-30T05:00:43;99998.09;;;20.66
15144;BMP180;7672;50.834;6.286;2022-07-30T05:03:13;99997.84;;;20.73
15144;BMP180;7672;50.834;6.286;2022-07-30T05:05:41;100004.44;;;20.82
15144;BMP180;7672;50.834;6.286;2022-07-30T05:08:08;99995.66;;;20.89
15144;BMP180;7672;50.834;6.286;2022-07-30T05:10:37;100011.59;;;20.98
15144;BMP180;7672;50.834;6.286;2022-07-30T05:13:10;100007.94;;;21.05
15144;BMP180;7672;50.834;6.286;2022-07-30T05:15:39;100008.53;;;21.13
15144;BMP180;7672;50.834;6.286;2022-07-30T05:18:06;100005.75;;;21.19
15144;BMP180;7672;50.834;6.286;2022-07-30T05:20:34;100012.28;;;21.27
15144;BMP180;7672;50.834;6.286;2022-07-30T05:23:01;100003.50;;;21.34
15144;BMP180;7672;50.834;6.286;2022-07-30T05:25:28;100012.59;;;21.43
15144;BMP180;7672;50.834;6.286;2022-07-30T05:27:55;100021.72;;;21.53
15144;BMP180;7672;50.834;6.286;2022-07-30T05:30:25;100018.81;;;21.62
15144;BMP180;7672;50.834;6.286;2022-07-30T05:32:53;100022.88;;;21.69
15144;BMP180;7672;50.834;6.286;2022-07-30T05:35:22;100023.44;;;21.76
15144;BMP180;7672;50.834;6.286;2022-07-30T05:37:48;100030.06;;;21.83
15144;BMP180;7672;50.834;6.286;2022-07-30T05:40:15;100032.28;;;21.92
15144;BMP180;7672;50.834;6.286;2022-07-30T05:42:42;100031.09;;;22.01
15144;BMP180;7672;50.834;6.286;2022-07-30T05:45:10;100033.38;;;22.08
15144;BMP180;7672;50.834;6.286;2022-07-30T05:47:36;100045.03;;;22.18
15144;BMP180;7672;50.834;6.286;2022-07-30T05:50:04;100037.03;;;22.26
15144;BMP180;7672;50.834;6.286;2022-07-30T05:52:32;100043.63;;;22.33
15144;BMP180;7672;50.834;6.286;2022-07-30T05:54:59;100046.06;;;22.37
15144;BMP180;7672;50.834;6.286;2022-07-30T05:57:26;100044.97;;;22.42
15144;BMP180;7672;50.834;6.286;2022-07-30T05:59:52;100045.69;;;22.46
15144;BMP180;7672;50.834;6.286;2022-07-30T06:02:19;100047.31;;;22.48
15144;BMP180;7672;50.834;6.286;2022-07-30T06:04:50;100051.38;;;22.54
15144;BMP180;7672;50.834;6.286;2022-07-30T06:07:17;100042.78;;;22.55
15144;BMP180;7672;50.834;6.286;2022-07-30T06:09:44;100042.69;;;22.58
15144;BMP180;7672;50.834;6.286;2022-07-30T06:12:11;100046.00;;;22.60
15144;BMP180;7672;50.834;6.286;2022-07-30T06:14:38;100050.22;;;22.62
15144;BMP180;7672;50.834;6.286;2022-07-30T06:17:05;100059.50;;;22.66
15144;BMP180;7672;50.834;6.286;2022-07-30T06:19:32;100056.91;;;22.66
15144;BMP180;7672;50.834;6.286;2022-07-30T06:21:59;100051.00;;;22.64
15144;BMP180;7672;50.834;6.286;2022-07-30T06:24:32;100060.38;;;22.65
15144;BMP180;7672;50.834;6.286;2022-07-30T06:26:59;100061.25;;;22.66
15144;BMP180;7672;50.834;6.286;2022-07-30T06:29:27;100058.72;;;22.64
15144;BMP180;7672;50.834;6.286;2022-07-30T06:31:54;100069.03;;;22.64
15144;BMP180;7672;50.834;6.286;2022-07-30T06:34:21;100067.28;;;22.65
15144;BMP180;7672;50.834;6.286;2022-07-30T06:36:48;100067.34;;;22.63
15144;BMP180;7672;50.834;6.286;2022-07-30T06:39:15;100067.41;;;22.62
15144;BMP180;7672;50.834;6.286;2022-07-30T06:42:03;100067.44;;;22.60
15144;BMP180;7672;50.834;6.286;2022-07-30T06:44:30;100059.72;;;22.60
15144;BMP180;7672;50.834;6.286;2022-07-30T06:46:57;100066.63;;;22.60
15144;BMP180;7672;50.834;6.286;2022-07-30T06:49:26;100066.69;;;22.58
15144;BMP180;7672;50.834;6.286;2022-07-30T06:51:53;100072.78;;;22.56
15144;BMP180;7672;50.834;6.286;2022-07-30T06:54:20;100067.63;;;22.56
15144;BMP180;7672;50.834;6.286;2022-07-30T06:56:46;100078.84;;;22.55
15144;BMP180;7672;50.834;6.286;2022-07-30T06:59:14;100078.84;;;22.55
15144;BMP180;7672;50.834;6.286;2022-07-30T07:01:43;100065.06;;;22.56
15144;BMP180;7672;50.834;6.286;2022-07-30T07:04:11;100075.19;;;22.60
15144;BMP180;7672;50.834;6.286;2022-07-30T07:06:37;100075.00;;;22.65
15144;BMP180;7672;50.834;6.286;2022-07-30T07:09:04;100081.66;;;22.70
15144;BMP180;7672;50.834;6.286;2022-07-30T07:11:31;100084.13;;;22.73
15144;BMP180;7672;50.834;6.286;2022-07-30T07:13:58;100082.97;;;22.80
15144;BMP180;7672;50.834;6.286;2022-07-30T07:16:30;100078.44;;;22.87
15144;BMP180;7672;50.834;6.286;2022-07-30T07:18:57;100085.09;;;22.92
15144;BMP180;7672;50.834;6.286;2022-07-30T07:21:24;100086.66;;;22.96
15144;BMP180;7672;50.834;6.286;2022-07-30T07:23:50;100091.63;;;23.01
15144;BMP180;7672;50.834;6.286;2022-07-30T07:26:17;100093.97;;;23.06
15144;BMP180;7672;50.834;6.286;2022-07-30T07:28:44;100091.94;;;23.14
15144;BMP180;7672;50.834;6.286;2022-07-30T07:31:11;100100.97;;;23.24
15144;BMP180;7672;50.834;6.286;2022-07-30T07:33:58;100104.88;;;23.34
15144;BMP180;7672;50.834;6.286;2022-07-30T07:36:25;100106.91;;;23.46
15144;BMP180;7672;50.834;6.286;2022-07-30T07:38:53;100097.78;;;23.59
15144;BMP180;7672;50.834;6.286;2022-07-30T07:41:20;100104.06;;;23.73
15144;BMP180;7672;50.834;6.286;2022-07-30T07:43:47;100099.88;;;23.91
15144;BMP180;7672;50.834;6.286;2022-07-30T07:46:13;100097.09;;;24.14
15144;BMP180;7672;50.834;6.286;2022-07-30T07:48:59;100089.94;;;24.38
15144;BMP180;7672;50.834;6.286;2022-07-30T07:51:26;100098.97;;;24.67
15144;BMP180;7672;50.834;6.286;2022-07-30T07:54:13;100089.53;;;25.01
15144;BMP180;7672;50.834;6.286;2022-07-30T07:56:48;100093.41;;;25.45
15144;BMP180;7672;50.834;6.286;2022-07-30T07:59:18;100092.63;;;25.93
15144;BMP180;7672;50.834;6.286;2022-07-30T08:01:46;100090.00;;;26.42
15144;BMP180;7672;50.834;6.286;2022-07-30T08:04:16;100093.31;;;26.90
15144;BMP180;7672;50.834;6.286;2022-07-30T08:06:43;100085.09;;;27.43
15144;BMP180;7672;50.834;6.286;2022-07-30T08:09:09;100093.00;;;27.98
15144;BMP180;7672;50.834;6.286;2022-07-30T08:11:36;100089.53;;;28.67
15144;BMP180;7672;50.834;6.286;2022-07-30T08:14:03;100092.34;;;29.43
15144;BMP180;7672;50.834;6.286;2022-07-30T08:16:30;100094.41;;;30.37
15144;BMP180;7672;50.834;6.286;2022-07-30T08:18:57;100096.69;;;31.47
15144;BMP180;7672;50.834;6.286;2022-07-30T08:21:24;100086.72;;;32.63
15144;BMP180;7672;50.834;6.286;2022-07-30T08:23:51;100088.78;;;33.74
15144;BMP180;7672;50.834;6.286;2022-07-30T08:26:17;100086.56;;;34.58
15144;BMP180;7672;50.834;6.286;2022-07-30T08:28:44;100087.34;;;35.17
15144;BMP180;7672;50.834;6.286;2022-07-30T08:31:11;100087.38;;;35.91
15144;BMP180;7672;50.834;6.286;2022-07-30T08:33:38;100080.81;;;36.67
15144;BMP180;7672;50.834;6.286;2022-07-30T08:36:05;100087.69;;;37.47
15144;BMP180;7672;50.834;6.286;2022-07-30T08:38:36;100086.53;;;38.26
15144;BMP180;7672;50.834;6.286;2022-07-30T08:41:04;100098.44;;;38.71
15144;BMP180;7672;50.834;6.286;2022-07-30T08:43:31;100086.75;;;38.89
15144;BMP180;7672;50.834;6.286;2022-07-30T08:45:59;100095.56;;;39.29
15144;BMP180;7672;50.834;6.286;2022-07-30T08:48:28;100093.72;;;39.69
15144;BMP180;7672;50.834;6.286;2022-07-30T08:50:56;100094.44;;;40.18
15144;BMP180;7672;50.834;6.286;2022-07-30T08:53:24;100086.94;;;40.37
15144;BMP180;7672;50.834;6.286;2022-07-30T08:55:51;100087.66;;;40.31
15144;BMP180;7672;50.834;6.286;2022-07-30T08:58:32;100099.44;;;40.59
15144;BMP180;7672;50.834;6.286;2022-07-30T09:01:02;100093.84;;;40.84
15144;BMP180;7672;50.834;6.286;2022-07-30T09:03:31;100085.63;;;40.94
15144;BMP180;7672;50.834;6.286;2022-07-30T09:06:00;100088.31;;;41.16
15144;BMP180;7672;50.834;6.286;2022-07-30T09:08:28;100089.00;;;41.32
15144;BMP180;7672;50.834;6.286;2022-07-30T09:10:55;100094.13;;;41.70
15144;BMP180;7672;50.834;6.286;2022-07-30T09:13:34;100091.25;;;42.23
15144;BMP180;7672;50.834;6.286;2022-07-30T09:16:05;100102.72;;;42.73
15144;BMP180;7672;50.834;6.286;2022-07-30T09:18:39;100106.03;;;42.96
15144;BMP180;7672;50.834;6.286;2022-07-30T09:21:24;100104.50;;;42.87
15144;BMP180;7672;50.834;6.286;2022-07-30T09:24:06;100102.84;;;42.86
15144;BMP180;7672;50.834;6.286;2022-07-30T09:27:01;100092.47;;;42.91
15144;BMP180;7672;50.834;6.286;2022-07-30T09:29:31;100098.97;;;43.03
15144;BMP180;7672;50.834;6.286;2022-07-30T09:32:04;100097.69;;;43.20
15144;BMP180;7672;50.834;6.286;2022-07-30T09:34:36;100092.72;;;43.59
15144;BMP180;7672;50.834;6.286;2022-07-30T09:37:24;100092.59;;;44.00
15144;BMP180;7672;50.834;6.286;2022-07-30T09:39:55;100085.41;;;44.34
15144;BMP180;7672;50.834;6.286;2022-07-30T09:42:27;100091.88;;;44.66
15144;BMP180;7672;50.834;6.286;2022-07-30T09:45:13;100088.91;;;44.94
15144;BMP180;7672;50.834;6.286;2022-07-30T09:47:44;100078.44;;;45.19
15144;BMP180;7672;50.834;6.286;2022-07-30T09:50:17;100080.31;;;45.31
15144;BMP180;7672;50.834;6.286;2022-07-30T09:53:07;100082.16;;;45.50
15144;BMP180;7672;50.834;6.286;2022-07-30T09:55:35;100085.88;;;45.68
15144;BMP180;7672;50.834;6.286;2022-07-30T09:58:08;100088.50;;;45.88
15144;BMP180;7672;50.834;6.286;2022-07-30T10:00:42;100082.72;;;46.04
15144;BMP180;7672;50.834;6.286;2022-07-30T10:03:24;100081.84;;;46.16
15144;BMP180;7672;50.834;6.286;2022-07-30T10:06:00;100100.28;;;46.30
15144;BMP180;7672;50.834;6.286;2022-07-30T10:08:49;100088.78;;;46.36
15144;BMP180;7672;50.834;6.286;2022-07-30T10:11:20;100099.44;;;46.43
15144;BMP180;7672;50.834;6.286;2022-07-30T10:13:55;100086.66;;;46.45
15144;BMP180;7672;50.834;6.286;2022-07-30T10:16:27;100083.97;;;46.51
15144;BMP180;7672;50.834;6.286;2022-07-30T10:18:57;100085.81;;;46.51
15144;BMP180;7672;50.834;6.286;2022-07-30T10:21:27;100088.09;;;46.47
15144;BMP180;7672;50.834;6.286;2022-07-30T10:23:58;100085.66;;;46.46
15144;BMP180;7672;50.834;6.286;2022-07-30T10:26:26;100096.38;;;46.39
15144;BMP180;7672;50.834;6.286;2022-07-30T10:28:55;100087.75;;;46.31
15144;BMP180;7672;50.834;6.286;2022-07-30T10:31:25;100082.84;;;46.22
15144;BMP180;7672;50.834;6.286;2022-07-30T10:34:14;100088.41;;;46.14
15144;BMP180;7672;50.834;6.286;2022-07-30T10:36:50;100086.81;;;46.06
15144;BMP180;7672;50.834;6.286;2022-07-30T10:39:25;100082.72;;;46.04
15144;BMP180;7672;50.834;6.286;2022-07-30T10:42:43;100074.50;;;45.92
15144;BMP180;7672;50.834;6.286;2022-07-30T10:45:55;100067.94;;;45.82
15144;BMP180;7672;50.834;6.286;2022-07-30T10:48:34;100078.66;;;45.69
15144;BMP180;7672;50.834;6.286;2022-07-30T10:51:01;100071.91;;;45.47
15144;BMP180;7672;50.834;6.286;2022-07-30T10:56:21;100063.06;;;45.34
15144;BMP180;7672;50.834;6.286;2022-07-30T10:59:10;100061.84;;;45.36
15144;BMP180;7672;50.834;6.286;2022-07-30T11:02:06;100068.22;;;45.48
15144;BMP180;7672;50.834;6.286;2022-07-30T11:04:33;100074.97;;;45.57
15144;BMP180;7672;50.834;6.286;2022-07-30T11:09:52;100060.16;;;45.74
15144;BMP180;7672;50.834;6.286;2022-07-30T11:15:12;100065.28;;;45.82
15144;BMP180;7672;50.834;6.286;2022-07-30T11:18:05;100059.94;;;45.82
15144;BMP180;7672;50.834;6.286;2022-07-30T11:20:40;100065.91;;;45.84
15144;BMP180;7672;50.834;6.286;2022-07-30T11:23:36;100067.13;;;45.81
15144;BMP180;7672;50.834;6.286;2022-07-30T11:26:05;100063.63;;;45.87
15144;BMP180;7672;50.834;6.286;2022-07-30T11:31:32;100067.56;;;45.59
15144;BMP180;7672;50.834;6.286;2022-07-30T11:42:34;100048.63;;;44.83
15144;BMP180;7672;50.834;6.286;2022-07-30T11:47:53;100052.34;;;44.23
15144;BMP180;7672;50.834;6.286;2022-07-30T11:50:33;100049.88;;;43.87
15144;BMP180;7672;50.834;6.286;2022-07-30T11:53:12;100046.81;;;43.57
15144;BMP180;7672;50.834;6.286;2022-07-30T11:55:44;100048.63;;;43.29
15144;BMP180;7672;50.834;6.286;2022-07-30T11:58:26;100042.84;;;42.98
15144;BMP180;7672;50.834;6.286;2022-07-30T12:00:56;100038.72;;;42.75
15144;BMP180;7672;50.834;6.286;2022-07-30T12:03:24;100050.13;;;42.54
15144;BMP180;7672;50.834;6.286;2022-07-30T12:06:13;100053.97;;;42.31
15144;BMP180;7672;50.834;6.286;2022-07-30T12:08:46;100053.59;;;42.05
15144;BMP180;7672;50.834;6.286;2022-07-30T12:11:14;100059.63;;;41.70
15144;BMP180;7672;50.834;6.286;2022-07-30T12:13:43;100054.44;;;41.40
15144;BMP180;7672;50.834;6.286;2022-07-30T12:16:20;100061.13;;;41.14
15144;BMP180;7672;50.834;6.286;2022-07-30T12:18:47;100050.34;;;40.93
15144;BMP180;7672;50.834;6.286;2022-07-30T12:21:14;100050.66;;;40.76
15144;BMP180;7672;50.834;6.286;2022-07-30T12:23:53;100044.28;;;40.54
15144;BMP180;7672;50.834;6.286;2022-07-30T12:26:27;100036.59;;;40.37
15144;BMP180;7672;50.834;6.286;2022-07-30T12:29:01;100039.31;;;40.21
15144;BMP180;7672;50.834;6.286;2022-07-30T12:31:28;100047.63;;;40.10
15144;BMP180;7672;50.834;6.286;2022-07-30T12:33:55;100039.25;;;39.99
15144;BMP180;7672;50.834;6.286;2022-07-30T12:36:33;100038.13;;;39.85
15144;BMP180;7672;50.834;6.286;2022-07-30T12:39:03;100043.28;;;39.71
15144;BMP180;7672;50.834;6.286;2022-07-30T12:41:48;100045.31;;;39.53
15144;BMP180;7672;50.834;6.286;2022-07-30T12:47:02;100043.84;;;39.19
15144;BMP180;7672;50.834;6.286;2022-07-30T12:49:31;100042.34;;;39.01
15144;BMP180;7672;50.834;6.286;2022-07-30T12:52:31;100043.13;;;38.77
15144;BMP180;7672;50.834;6.286;2022-07-30T12:55:09;100033.53;;;38.60
15144;BMP180;7672;50.834;6.286;2022-07-30T12:57:53;100036.09;;;38.44
15144;BMP180;7672;50.834;6.286;2022-07-30T13:00:22;100031.44;;;38.31
15144;BMP180;7672;50.834;6.286;2022-07-30T13:02:49;100035.03;;;38.14
15144;BMP180;7672;50.834;6.286;2022-07-30T13:05:16;100030.63;;;37.97
15144;BMP180;7672;50.834;6.286;2022-07-30T13:08:13;100023.72;;;37.71
15144;BMP180;7672;50.834;6.286;2022-07-30T13:10:57;100031.69;;;37.53
15144;BMP180;7672;50.834;6.286;2022-07-30T13:13:28;100030.75;;;37.37
15144;BMP180;7672;50.834;6.286;2022-07-30T13:16:04;100036.03;;;37.19
15144;BMP180;7672;50.834;6.286;2022-07-30T13:18:33;100023.72;;;37.03
15144;BMP180;7672;50.834;6.286;2022-07-30T13:21:02;100024.09;;;36.90
15144;BMP180;7672;50.834;6.286;2022-07-30T13:23:29;100021.81;;;36.78
15144;BMP180;7672;50.834;6.286;2022-07-30T13:25:57;100023.69;;;36.68
15144;BMP180;7672;50.834;6.286;2022-07-30T13:28:23;100020.97;;;36.60
15144;BMP180;7672;50.834;6.286;2022-07-30T13:30:51;100019.78;;;36.54
15144;BMP180;7672;50.834;6.286;2022-07-30T13:33:18;100019.66;;;36.46
15144;BMP180;7672;50.834;6.286;2022-07-30T13:35:45;100011.69;;;36.39
15144;BMP180;7672;50.834;6.286;2022-07-30T13:38:12;100014.22;;;36.31
15144;BMP180;7672;50.834;6.286;2022-07-30T13:40:39;100019.53;;;36.21
15144;BMP180;7672;50.834;6.286;2022-07-30T13:43:07;100024.69;;;36.13
15144;BMP180;7672;50.834;6.286;2022-07-30T13:45:34;100021.38;;;36.11
15144;BMP180;7672;50.834;6.286;2022-07-30T13:48:02;100006.59;;;36.10
15144;BMP180;7672;50.834;6.286;2022-07-30T13:50:29;100010.72;;;36.13
15144;BMP180;7672;50.834;6.286;2022-07-30T13:52:56;100005.16;;;36.16
15144;BMP180;7672;50.834;6.286;2022-07-30T13:55:28;99998.94;;;36.17
15144;BMP180;7672;50.834;6.286;2022-07-30T13:57:56;99999.16;;;36.23
15144;BMP180;7672;50.834;6.286;2022-07-30T14:00:23;100005.25;;;36.24
15144;BMP180;7672;50.834;6.286;2022-07-30T14:02:50;99995.75;;;36.13
15144;BMP180;7672;50.834;6.286;2022-07-30T14:05:20;100002.31;;;36.00
15144;BMP180;7672;50.834;6.286;2022-07-30T14:07:46;99995.88;;;35.85
15144;BMP180;7672;50.834;6.286;2022-07-30T14:10:13;99990.41;;;35.69
15144;BMP180;7672;50.834;6.286;2022-07-30T14:12:41;99994.47;;;35.54
15144;BMP180;7672;50.834;6.286;2022-07-30T14:15:08;99996.03;;;35.47
15144;BMP180;7672;50.834;6.286;2022-07-30T14:17:35;99990.31;;;35.42
15144;BMP180;7672;50.834;6.286;2022-07-30T14:20:03;99982.59;;;35.41
15144;BMP180;7672;50.834;6.286;2022-07-30T14:22:30;99995.59;;;35.42
15144;BMP180;7672;50.834;6.286;2022-07-30T14:24:56;99986.19;;;35.85
15144;BMP180;7672;50.834;6.286;2022-07-30T14:27:23;99989.59;;;35.69
15144;BMP180;7672;50.834;6.286;2022-07-30T14:29:50;100000.66;;;35.63
15144;BMP180;7672;50.834;6.286;2022-07-30T14:32:17;99993.34;;;35.57
15144;BMP180;7672;50.834;6.286;2022-07-30T14:34:44;99990.06;;;35.45
15144;BMP180;7672;50.834;6.286;2022-07-30T14:37:15;99985.78;;;35.35
15144;BMP180;7672;50.834;6.286;2022-07-30T14:39:42;99989.56;;;35.23
15144;BMP180;7672;50.834;6.286;2022-07-30T14:42:09;99983.91;;;35.09
15144;BMP180;7672;50.834;6.286;2022-07-30T14:44:37;99985.03;;;34.97
15144;BMP180;7672;50.834;6.286;2022-07-30T14:47:04;99982.94;;;34.81
15144;BMP180;7672;50.834;6.286;2022-07-30T14:49:31;99980.44;;;34.70
15144;BMP180;7672;50.834;6.286;2022-07-30T14:51:58;99976.69;;;34.63
15144;BMP180;7672;50.834;6.286;2022-07-30T14:54:26;99982.25;;;34.51
15144;BMP180;7672;50.834;6.286;2022-07-30T14:56:53;99984.13;;;34.40
15144;BMP180;7672;50.834;6.286;2022-07-30T14:59:25;99991.16;;;34.30
15144;BMP180;7672;50.834;6.286;2022-07-30T15:01:54;99995.69;;;34.18